sensor_id;sensor_type;location;lat;lon;timestamp;temperature;humidity
37342;DHT22;58643;49.052;8.518;2023-06-26T10:44:45;31.40;80.10
37342;DHT22;58643;49.052;8.518;2023-06-26T10:47:12;31.50;76.80
37342;DHT22;58643;49.052;8.518;2023-06-26T10:49:53;31.10;76.30
37342;DHT22;58643;49.052;8.518;2023-06-26T10:52:19;30.80;76.20
37342;DHT22;58643;49.052;8.518;2023-06-26T10:54:44;31.50;75.90
37342;DHT22;58643;49.052;8.518;2023-06-26T10:57:10;32.10;73.30
37342;DHT22;58643;49.052;8.518;2023-06-26T10:59:39;31.40;74.60
37342;DHT22;58643;49.052;8.518;2023-06-26T11:02:05;31.00;75.30
37342;DHT22;58643;49.052;8.518;2023-06-26T11:04:47;30.80;76.10
37342;DHT22;58643;49.052;8.518;2023-06-26T11:10:08;30.30;76.40
37342;DHT22;58643;49.052;8.518;2023-06-26T11:12:37;30.10;77.50
37342;DHT22;58643;49.052;8.518;2023-06-26T11:15:25;29.90;77.30
37342;DHT22;58643;49.052;8.518;2023-06-26T11:17:52;30.10;76.70
37342;DHT22;58643;49.052;8.518;2023-06-26T11:20:18;30.20;76.20
37342;DHT22;58643;49.052;8.518;2023-06-26T11:22:44;29.90;77.70
37342;DHT22;58643;49.052;8.518;2023-06-26T11:25:11;30.00;75.90
37342;DHT22;58643;49.052;8.518;2023-06-26T11:27:43;29.70;76.40
37342;DHT22;58643;49.052;8.518;2023-06-26T11:30:11;29.70;77.20
37342;DHT22;58643;49.052;8.518;2023-06-26T11:32:40;30.30;75.30
37342;DHT22;58643;49.052;8.518;2023-06-26T11:35:06;30.40;74.70
37342;DHT22;58643;49.052;8.518;2023-06-26T11:37:32;30.70;73.60
37342;DHT22;58643;49.052;8.518;2023-06-26T11:39:58;31.80;73.00
37342;DHT22;58643;49.052;8.518;2023-06-26T11:42:24;31.70;72.60
37342;DHT22;58643;49.052;8.518;2023-06-26T11:44:51;31.70;73.70
37342;DHT22;58643;49.052;8.518;2023-06-26T11:47:18;31.80;71.60
37342;DHT22;58643;49.052;8.518;2023-06-26T11:49:49;32.00;71.40
37342;DHT22;58643;49.052;8.518;2023-06-26T11:52:15;31.80;70.00
37342;DHT22;58643;49.052;8.518;2023-06-26T11:54:42;31.40;70.30
37342;DHT22;58643;49.052;8.518;2023-06-26T11:57:08;31.10;70.80
37342;DHT22;58643;49.052;8.518;2023-06-26T11:59:35;31.70;70.00
37342;DHT22;58643;49.052;8.518;2023-06-26T12:02:08;31.60;69.70
37342;DHT22;58643;49.052;8.518;2023-06-26T12:04:35;31.40;70.00
37342;DHT22;58643;49.052;8.518;2023-06-26T12:07:02;31.70;69.30
37342;DHT22;58643;49.052;8.518;2023-06-26T12:09:31;31.40;68.70
37342;DHT22;58643;49.052;8.518;2023-06-26T12:11:59;31.60;69.00
37342;DHT22;58643;49.052;8.518;2023-06-26T12:14:26;32.00;68.00
37342;DHT22;58643;49.052;8.518;2023-06-26T12:16:54;31.60;68.10
37342;DHT22;58643;49.052;8.518;2023-06-26T12:19:25;31.80;66.60
37342;DHT22;58643;49.052;8.518;2023-06-26T12:21:54;32.00;66.90
37342;DHT22;58643;49.052;8.518;2023-06-26T12:24:22;32.10;66.60
37342;DHT22;58643;49.052;8.518;2023-06-26T12:26:53;31.50;66.10
37342;DHT22;58643;49.052;8.518;2023-06-26T12:29:29;31.40;65.90
37342;DHT22;58643;49.052;8.518;2023-06-26T12:31:55;31.20;65.90
37342;DHT22;58643;49.052;8.518;2023-06-26T12:34:26;30.80;66.50
37342;DHT22;58643;49.052;8.518;2023-06-26T12:36:52;31.30;66.30
37342;DHT22;58643;49.052;8.518;2023-06-26T12:39:21;31.60;64.80
37342;DHT22;58643;49.052;8.518;2023-06-26T12:41:54;31.10;64.20
37342;DHT22;58643;49.052;8.518;2023-06-26T12:44:30;31.90;64.30
37342;DHT22;58643;49.052;8.518;2023-06-26T12:47:02;31.80;64.30
37342;DHT22;58643;49.052;8.518;2023-06-26T12:49:36;32.00;61.90
37342;DHT22;58643;49.052;8.518;2023-06-26T12:52:09;32.00;62.70
37342;DHT22;58643;49.052;8.518;2023-06-26T12:54:38;32.00;62.60
37342;DHT22;58643;49.052;8.518;2023-06-26T12:57:04;32.20;62.30
37342;DHT22;58643;49.052;8.518;2023-06-26T12:59:31;31.70;62.50
37342;DHT22;58643;49.052;8.518;2023-06-26T13:01:57;31.50;62.90
37342;DHT22;58643;49.052;8.518;2023-06-26T13:04:23;31.40;63.10
37342;DHT22;58643;49.052;8.518;2023-06-26T13:06:49;31.30;63.10
37342;DHT22;58643;49.052;8.518;2023-06-26T13:09:15;31.60;61.30
37342;DHT22;58643;49.052;8.518;2023-06-26T13:11:41;31.60;61.90
37342;DHT22;58643;49.052;8.518;2023-06-26T13:14:07;31.90;61.40
37342;DHT22;58643;49.052;8.518;2023-06-26T13:16:32;31.90;60.80
37342;DHT22;58643;49.052;8.518;2023-06-26T13:18:59;31.90;60.30
37342;DHT22;58643;49.052;8.518;2023-06-26T13:21:26;33.20;60.90
37342;DHT22;58643;49.052;8.518;2023-06-26T13:23:52;32.70;61.00
37342;DHT22;58643;49.052;8.518;2023-06-26T13:26:18;33.00;58.90
37342;DHT22;58643;49.052;8.518;2023-06-26T13:28:44;33.20;59.10
37342;DHT22;58643;49.052;8.518;2023-06-26T13:31:09;33.60;58.10
37342;DHT22;58643;49.052;8.518;2023-06-26T13:33:35;33.40;58.30
37342;DHT22;58643;49.052;8.518;2023-06-26T13:36:00;32.50;59.70
37342;DHT22;58643;49.052;8.518;2023-06-26T13:38:29;32.90;58.90
37342;DHT22;58643;49.052;8.518;2023-06-26T13:40:55;32.60;59.60
37342;DHT22;58643;49.052;8.518;2023-06-26T13:43:26;32.20;58.50
37342;DHT22;58643;49.052;8.518;2023-06-26T13:45:52;32.20;58.70
37342;DHT22;58643;49.052;8.518;2023-06-26T13:48:17;32.20;58.30
37342;DHT22;58643;49.052;8.518;2023-06-26T13:50:43;33.00;58.20
37342;DHT22;58643;49.052;8.518;2023-06-26T13:53:09;33.60;57.60
37342;DHT22;58643;49.052;8.518;2023-06-26T13:55:35;33.30;56.70
37342;DHT22;58643;49.052;8.518;2023-06-26T13:58:01;32.60;58.60
37342;DHT22;58643;49.052;8.518;2023-06-26T14:00:34;32.40;58.60
37342;DHT22;58643;49.052;8.518;2023-06-26T14:03:01;32.40;58.20
37342;DHT22;58643;49.052;8.518;2023-06-26T14:05:31;32.90;57.90
37342;DHT22;58643;49.052;8.518;2023-06-26T14:07:57;32.90;57.40
37342;DHT22;58643;49.052;8.518;2023-06-26T14:10:23;32.50;58.60
37342;DHT22;58643;49.052;8.518;2023-06-26T14:12:49;32.30;58.80
37342;DHT22;58643;49.052;8.518;2023-06-26T14:15:14;31.70;59.30
37342;DHT22;58643;49.052;8.518;2023-06-26T14:17:40;31.70;59.90
37342;DHT22;58643;49.052;8.518;2023-06-26T14:20:07;32.00;58.70
37342;DHT22;58643;49.052;8.518;2023-06-26T14:22:38;33.10;58.10
37342;DHT22;58643;49.052;8.518;2023-06-26T14:25:05;33.20;56.90
37342;DHT22;58643;49.052;8.518;2023-06-26T14:27:31;33.30;57.90
37342;DHT22;58643;49.052;8.518;2023-06-26T14:29:57;33.20;57.70
37342;DHT22;58643;49.052;8.518;2023-06-26T14:32:22;32.90;57.40
37342;DHT22;58643;49.052;8.518;2023-06-26T14:34:48;32.40;58.20
37342;DHT22;58643;49.052;8.518;2023-06-26T14:37:13;32.10;58.00
37342;DHT22;58643;49.052;8.518;2023-06-26T14:39:39;31.20;59.30
37342;DHT22;58643;49.052;8.518;2023-06-26T14:42:05;31.70;58.50
37342;DHT22;58643;49.052;8.518;2023-06-26T14:44:31;31.90;57.60
37342;DHT22;58643;49.052;8.518;2023-06-26T14:46:56;31.70;56.30
37342;DHT22;58643;49.052;8.518;2023-06-26T14:49:22;31.00;55.90
37342;DHT22;58643;49.052;8.518;2023-06-26T14:51:47;31.50;56.60
37342;DHT22;58643;49.052;8.518;2023-06-26T14:54:13;32.50;55.00
37342;DHT22;58643;49.052;8.518;2023-06-26T14:56:39;33.10;54.40
37342;DHT22;58643;49.052;8.518;2023-06-26T14:59:04;33.10;53.70
37342;DHT22;58643;49.052;8.518;2023-06-26T15:01:33;33.40;53.70
37342;DHT22;58643;49.052;8.518;2023-06-26T15:03:58;33.30;52.20
37342;DHT22;58643;49.052;8.518;2023-06-26T15:06:24;33.10;52.10
37342;DHT22;58643;49.052;8.518;2023-06-26T15:08:50;32.90;52.10
37342;DHT22;58643;49.052;8.518;2023-06-26T15:11:15;32.70;52.50
37342;DHT22;58643;49.052;8.518;2023-06-26T15:13:41;32.00;51.60
37342;DHT22;58643;49.052;8.518;2023-06-26T15:16:06;31.80;51.80
37342;DHT22;58643;49.052;8.518;2023-06-26T15:18:32;31.50;50.50
37342;DHT22;58643;49.052;8.518;2023-06-26T15:20:58;31.10;50.40
37342;DHT22;58643;49.052;8.518;2023-06-26T15:23:23;31.00;49.70
37342;DHT22;58643;49.052;8.518;2023-06-26T15:25:49;30.80;50.20
37342;DHT22;58643;49.052;8.518;2023-06-26T15:28:14;30.80;48.60
37342;DHT22;58643;49.052;8.518;2023-06-26T15:30:40;30.60;49.50
37342;DHT22;58643;49.052;8.518;2023-06-26T15:33:06;30.60;49.80
37342;DHT22;58643;49.052;8.518;2023-06-26T15:35:31;30.60;48.70
37342;DHT22;58643;49.052;8.518;2023-06-26T15:37:57;30.40;47.40
37342;DHT22;58643;49.052;8.518;2023-06-26T15:40:22;30.40;46.00
37342;DHT22;58643;49.052;8.518;2023-06-26T15:42:50;30.90;45.60
37342;DHT22;58643;49.052;8.518;2023-06-26T15:45:16;31.10;45.40
37342;DHT22;58643;49.052;8.518;2023-06-26T15:47:48;32.00;45.20
37342;DHT22;58643;49.052;8.518;2023-06-26T15:50:13;32.70;44.80
37342;DHT22;58643;49.052;8.518;2023-06-26T15:52:39;32.80;45.00
37342;DHT22;58643;49.052;8.518;2023-06-26T15:55:05;33.10;44.60
37342;DHT22;58643;49.052;8.518;2023-06-26T15:57:31;31.70;44.80
37342;DHT22;58643;49.052;8.518;2023-06-26T15:59:57;30.60;45.80
37342;DHT22;58643;49.052;8.518;2023-06-26T16:02:23;30.10;46.30
37342;DHT22;58643;49.052;8.518;2023-06-26T16:04:49;30.10;47.20
37342;DHT22;58643;49.052;8.518;2023-06-26T16:07:15;30.40;47.80
37342;DHT22;58643;49.052;8.518;2023-06-26T16:09:40;30.20;48.50
37342;DHT22;58643;49.052;8.518;2023-06-26T16:12:06;30.40;48.60
37342;DHT22;58643;49.052;8.518;2023-06-26T16:14:32;30.70;48.40
37342;DHT22;58643;49.052;8.518;2023-06-26T16:16:58;30.30;49.30
37342;DHT22;58643;49.052;8.518;2023-06-26T16:19:24;30.00;49.30
37342;DHT22;58643;49.052;8.518;2023-06-26T16:21:50;30.10;49.10
37342;DHT22;58643;49.052;8.518;2023-06-26T16:24:15;30.40;49.20
37342;DHT22;58643;49.052;8.518;2023-06-26T16:26:41;30.30;49.20
37342;DHT22;58643;49.052;8.518;2023-06-26T16:29:07;30.40;49.60
37342;DHT22;58643;49.052;8.518;2023-06-26T16:31:32;30.90;49.80
37342;DHT22;58643;49.052;8.518;2023-06-26T16:33:58;30.40;49.00
37342;DHT22;58643;49.052;8.518;2023-06-26T16:36:23;30.30;49.40
37342;DHT22;58643;49.052;8.518;2023-06-26T16:38:49;30.60;49.00
37342;DHT22;58643;49.052;8.518;2023-06-26T16:41:14;30.50;48.80
